createdAt,value
2023-01-30T00:01:25.339Z,-2.39
2023-01-30T00:03:52.455Z,-2.41
2023-01-30T00:06:22.428Z,-2.43
2023-01-30T00:08:49.485Z,-2.46
2023-01-30T00:11:22.437Z,-2.48
2023-01-30T00:13:50.316Z,-2.45
2023-01-30T00:16:17.574Z,-2.42
2023-01-30T00:18:46.756Z,-2.37
2023-01-30T00:21:14.208Z,-2.35
2023-01-30T00:23:42.892Z,-2.32
2023-01-30T00:26:10.354Z,-2.31
2023-01-30T00:28:45.809Z,-2.32
2023-01-30T00:31:12.965Z,-2.35
2023-01-30T00:33:39.938Z,-2.40
2023-01-30T00:36:07.964Z,-2.44
2023-01-30T00:38:40.455Z,-2.42
2023-01-30T00:41:07.591Z,-2.39
2023-01-30T00:43:59.329Z,-2.34
2023-01-30T00:46:51.898Z,-2.26
2023-01-30T00:49:24.442Z,-2.23
2023-01-30T00:51:51.584Z,-2.26
2023-01-30T00:54:18.636Z,-2.31
2023-01-30T00:56:45.907Z,-2.36
2023-01-30T00:59:12.939Z,-2.42
2023-01-30T01:01:40.449Z,-2.42
2023-01-30T01:04:14.943Z,-2.37
2023-01-30T01:06:43.748Z,-2.26
2023-01-30T01:09:16.276Z,-2.19
2023-01-30T01:11:43.321Z,-2.17
2023-01-30T01:14:10.783Z,-2.17
2023-01-30T01:16:38.400Z,-2.16
2023-01-30T01:19:05.592Z,-2.18
2023-01-30T01:21:37.864Z,-2.26
2023-01-30T01:24:05.726Z,-2.32
2023-01-30T01:26:34.919Z,-2.33
2023-01-30T01:29:02.789Z,-2.29
2023-01-30T01:31:31.346Z,-2.22
2023-01-30T01:33:59.342Z,-2.16
2023-01-30T01:36:51.672Z,-2.15
2023-01-30T01:39:20.985Z,-2.10
2023-01-30T01:41:50.079Z,-2.08
2023-01-30T01:44:17.696Z,-2.09
2023-01-30T01:46:48.561Z,-2.11
2023-01-30T01:49:20.282Z,-2.14
2023-01-30T01:51:55.380Z,-2.21
2023-01-30T01:54:39.027Z,-2.24
2023-01-30T01:57:08.158Z,-2.23
2023-01-30T01:59:38.984Z,-2.18
2023-01-30T02:02:09.294Z,-2.09
2023-01-30T02:04:57.548Z,-2.00
2023-01-30T02:07:24.655Z,-1.97
2023-01-30T02:09:52.264Z,-1.96
2023-01-30T02:12:20.795Z,-1.96
2023-01-30T02:14:48.052Z,-1.94
2023-01-30T02:17:15.204Z,-1.91
2023-01-30T02:19:48.504Z,-1.94
2023-01-30T02:22:31.833Z,-2.00
2023-01-30T02:25:20.696Z,-2.05
2023-01-30T02:28:10.051Z,-2.05
2023-01-30T02:31:33.152Z,-1.99
2023-01-30T02:34:26.687Z,-1.90
2023-01-30T02:37:24.653Z,-1.85
2023-01-30T02:40:17.817Z,-1.85
2023-01-30T02:43:19.473Z,-1.82
2023-01-30T02:46:17.168Z,-1.84
2023-01-30T02:48:49.307Z,-1.88
2023-01-30T02:51:19.652Z,-1.92
2023-01-30T02:53:47.605Z,-1.99
2023-01-30T02:56:14.859Z,-2.08
2023-01-30T02:58:49.453Z,-2.16
2023-01-30T03:01:36.271Z,-2.21
2023-01-30T03:04:27.405Z,-2.18
2023-01-30T03:07:31.553Z,-2.18
2023-01-30T03:10:53.275Z,-2.19
2023-01-30T03:13:27.660Z,-2.15
2023-01-30T03:16:08.233Z,-2.25
2023-01-30T03:18:36.506Z,-2.42
2023-01-30T03:21:08.669Z,-2.56
2023-01-30T03:23:36.125Z,-2.66
2023-01-30T03:26:11.230Z,-2.81
2023-01-30T03:28:43.641Z,-2.97
2023-01-30T03:31:10.755Z,-3.04
2023-01-30T03:33:43.541Z,-3.15
2023-01-30T03:36:10.921Z,-3.18
2023-01-30T03:38:38.492Z,-3.17
2023-01-30T03:41:10.750Z,-3.17
2023-01-30T03:43:38.926Z,-3.13
2023-01-30T03:46:07.979Z,-3.24
2023-01-30T03:48:35.882Z,-3.31
2023-01-30T03:51:02.943Z,-3.47
2023-01-30T03:53:30.905Z,-3.58
2023-01-30T03:55:59.280Z,-3.61
2023-01-30T03:58:29.909Z,-3.67
2023-01-30T04:00:57.220Z,-3.76
2023-01-30T04:03:25.978Z,-3.89
2023-01-30T04:05:55.250Z,-4.05
2023-01-30T04:08:22.606Z,-4.09
2023-01-30T04:10:54.976Z,-4.12
2023-01-30T04:13:23.002Z,-4.07
2023-01-30T04:15:56.065Z,-4.05
2023-01-30T04:19:00.057Z,-4.09
2023-01-30T04:21:33.137Z,-4.10
2023-01-30T04:24:02.232Z,-4.11
2023-01-30T04:26:29.808Z,-4.17
2023-01-30T04:29:03.400Z,-4.26
2023-01-30T04:31:30.869Z,-4.39
2023-01-30T08:28:15.112Z,0.34
2023-01-30T08:30:42.270Z,0.80
2023-01-30T08:33:09.102Z,1.13
2023-01-30T08:35:36.273Z,1.48
2023-01-30T08:38:06.731Z,1.94
2023-01-30T08:40:33.570Z,2.39
2023-01-30T08:43:00.726Z,2.78
2023-01-30T08:45:28.207Z,3.19
2023-01-30T08:48:03.012Z,3.61
2023-01-30T08:50:31.802Z,4.18
2023-01-30T08:53:06.948Z,4.69
2023-01-30T08:55:34.196Z,5.21
2023-01-30T08:58:04.167Z,5.68
2023-01-30T09:00:32.092Z,6.11
2023-01-30T09:03:05.168Z,6.53
2023-01-30T09:05:33.437Z,7.01
2023-01-30T09:08:00.489Z,7.43
2023-01-30T09:10:27.534Z,7.86
2023-01-30T09:13:14.449Z,8.31
2023-01-30T09:15:43.643Z,8.56
2023-01-30T09:18:10.997Z,8.87
2023-01-30T09:20:39.683Z,9.17
2023-01-30T09:23:07.344Z,9.59
2023-01-30T09:25:35.522Z,9.89
2023-01-30T09:28:03.183Z,9.99
2023-01-30T09:30:30.292Z,10.22
2023-01-30T09:32:59.223Z,10.59
2023-01-30T09:35:26.471Z,10.96
2023-01-30T09:37:54.386Z,11.18
2023-01-30T09:40:27.420Z,11.42
2023-01-30T09:43:04.099Z,11.64
2023-01-30T09:45:44.773Z,11.79
2023-01-30T09:48:35.052Z,12.02
2023-01-30T09:51:05.799Z,12.23
2023-01-30T09:53:57.878Z,12.33
2023-01-30T09:56:31.227Z,12.65
2023-01-30T09:59:25.322Z,12.92
2023-01-30T10:02:31.721Z,12.98
2023-01-30T10:05:16.899Z,13.22
2023-01-30T10:08:14.358Z,13.30
2023-01-30T10:11:09.523Z,13.44
2023-01-30T10:13:56.169Z,13.43
2023-01-30T10:16:29.006Z,13.51
2023-01-30T10:19:33.553Z,13.73
2023-01-30T10:22:11.962Z,13.85
2023-01-30T10:25:00.642Z,14.00
2023-01-30T10:27:28.975Z,14.08
2023-01-30T10:29:57.764Z,14.26
2023-01-30T10:33:04.999Z,14.41
2023-01-30T10:35:37.836Z,14.63
2023-01-30T10:38:12.146Z,14.79
2023-01-30T10:41:00.518Z,15.00
2023-01-30T10:43:40.706Z,15.01
2023-01-30T10:46:10.257Z,15.05
2023-01-30T10:49:20.479Z,15.27
2023-01-30T10:52:00.781Z,15.20
2023-01-30T10:54:35.532Z,15.03
2023-01-30T10:57:20.207Z,14.93
2023-01-30T10:59:51.430Z,14.94
2023-01-30T11:02:53.833Z,15.02
2023-01-30T11:05:22.214Z,15.10
2023-01-30T11:07:49.108Z,15.40
2023-01-30T11:10:18.650Z,15.62
2023-01-30T11:12:47.155Z,15.46
2023-01-30T11:15:14.172Z,15.20
2023-01-30T11:17:41.815Z,15.18
2023-01-30T11:20:16.515Z,15.00
2023-01-30T11:23:03.862Z,15.16
2023-01-30T11:25:31.936Z,15.43
2023-01-30T11:28:03.591Z,15.53
2023-01-30T11:30:33.910Z,15.57
2023-01-30T11:33:16.446Z,15.52
2023-01-30T11:35:44.761Z,15.41
2023-01-30T11:38:20.662Z,15.12
2023-01-30T11:40:47.743Z,15.13
2023-01-30T11:43:14.607Z,15.09
2023-01-30T11:45:47.246Z,14.90
2023-01-30T11:48:33.455Z,14.93
2023-01-30T11:51:05.741Z,15.38
2023-01-30T11:53:38.318Z,15.42
2023-01-30T11:56:35.670Z,15.56
2023-01-30T11:59:05.903Z,15.45
2023-01-30T12:01:35.222Z,15.68
2023-01-30T12:04:08.248Z,15.84
2023-01-30T12:06:37.188Z,15.98
2023-01-30T12:09:04.501Z,15.93
2023-01-30T12:11:41.612Z,15.98
2023-01-30T12:14:16.430Z,15.91
2023-01-30T12:17:08.859Z,15.77
2023-01-30T12:19:51.983Z,14.68
2023-01-30T12:22:45.842Z,14.34
2023-01-30T12:25:25.284Z,14.55
2023-01-30T12:27:59.700Z,14.38
2023-01-30T12:30:41.952Z,14.31
2023-01-30T12:33:12.531Z,13.80
2023-01-30T12:35:49.336Z,13.74
2023-01-30T12:39:01.209Z,13.60
2023-01-30T12:41:47.001Z,13.05
2023-01-30T12:44:43.316Z,13.21
2023-01-30T12:47:23.826Z,13.16
2023-01-30T12:50:21.956Z,13.36
2023-01-30T12:53:07.005Z,12.80
2023-01-30T12:55:43.509Z,12.12
2023-01-30T12:58:29.139Z,12.01
2023-01-30T13:01:00.275Z,12.24
2023-01-30T13:03:33.487Z,12.30
2023-01-30T13:06:10.336Z,12.43
2023-01-30T13:09:06.739Z,12.49
2023-01-30T13:11:57.849Z,11.89
2023-01-30T13:14:46.183Z,11.62
2023-01-30T13:17:38.373Z,11.81
2023-01-30T13:20:17.882Z,11.34
2023-01-30T17:19:59.895Z,-1.48
2023-01-30T17:22:29.189Z,-1.25
2023-01-30T17:25:01.636Z,-1.27
2023-01-30T17:27:30.517Z,-1.35
2023-01-30T17:29:59.003Z,-1.32
2023-01-30T17:32:27.313Z,-1.30
2023-01-30T17:34:56.918Z,-1.32
2023-01-30T17:37:25.811Z,-1.43
2023-01-30T17:39:59.309Z,-1.49
2023-01-30T17:42:27.929Z,-1.49
2023-01-30T17:44:56.372Z,-1.41
2023-01-30T17:47:24.751Z,-1.36
2023-01-30T17:49:56.023Z,-1.28
2023-01-30T17:52:24.375Z,-1.19
2023-01-30T17:54:53.512Z,-1.05
2023-01-30T17:57:25.248Z,-0.97
2023-01-30T17:59:55.456Z,-0.94
2023-01-30T18:02:23.801Z,-1.02
2023-01-30T18:04:52.720Z,-1.13
2023-01-30T18:07:22.838Z,-1.12
2023-01-30T18:09:51.299Z,-1.16
2023-01-30T18:12:19.903Z,-1.20
2023-01-30T18:14:48.302Z,-1.13
2023-01-30T18:17:17.279Z,-1.13
2023-01-30T18:19:45.655Z,-1.17
2023-01-30T18:22:14.055Z,-1.21
2023-01-30T18:24:42.829Z,-1.16
2023-01-30T18:27:12.131Z,-1.06
2023-01-30T18:29:40.395Z,-0.95
2023-01-30T18:32:09.183Z,-0.84
2023-01-30T18:34:38.996Z,-0.77
2023-01-30T18:37:07.280Z,-0.77
2023-01-30T18:39:37.083Z,-0.76
2023-01-30T18:42:08.127Z,-0.82
2023-01-30T18:44:36.613Z,-0.88
2023-01-30T18:47:05.506Z,-0.90
2023-01-30T18:49:35.104Z,-0.96
2023-01-30T18:52:03.587Z,-1.00
2023-01-30T18:54:37.823Z,-0.99
2023-01-30T18:57:06.385Z,-0.95
2023-01-30T18:59:34.968Z,-0.96
2023-01-30T19:02:03.244Z,-0.89
2023-01-30T19:04:33.670Z,-0.81
2023-01-30T19:07:01.948Z,-0.76
2023-01-30T19:09:31.286Z,-0.73
2023-01-30T19:12:18.366Z,-0.79
2023-01-30T19:14:46.847Z,-0.85
2023-01-30T19:17:16.760Z,-0.86
2023-01-30T19:19:46.688Z,-0.82
2023-01-30T19:22:16.662Z,-0.77
2023-01-30T19:24:45.498Z,-0.73
2023-01-30T19:27:14.099Z,-0.70
2023-01-30T19:29:45.920Z,-0.72
2023-01-30T19:32:14.713Z,-0.73
2023-01-30T19:34:43.811Z,-0.71
2023-01-30T19:37:12.082Z,-0.72
2023-01-30T19:39:40.665Z,-0.72
2023-01-30T19:42:09.490Z,-0.76
2023-01-30T19:44:38.049Z,-0.77
2023-01-30T19:47:09.486Z,-0.71
2023-01-30T19:49:37.794Z,-0.68
2023-01-30T19:52:06.039Z,-0.76
2023-01-30T19:54:36.097Z,-0.74
2023-01-30T19:57:05.051Z,-0.72
2023-01-30T19:59:34.864Z,-0.81
2023-01-30T20:02:03.352Z,-0.92
2023-01-30T20:04:34.077Z,-1.11
2023-01-30T20:07:02.353Z,-1.14
2023-01-30T20:09:30.945Z,-1.10
2023-01-30T20:11:59.624Z,-1.03
2023-01-30T20:14:28.179Z,-0.94
2023-01-30T20:16:56.482Z,-0.87
2023-01-30T20:19:24.962Z,-0.80
2023-01-30T20:21:59.163Z,-0.86
2023-01-30T20:24:28.170Z,-0.93
2023-01-30T20:26:56.638Z,-1.04
2023-01-30T20:29:25.132Z,-1.07
2023-01-30T20:31:54.733Z,-1.01
2023-01-30T20:34:28.858Z,-0.93
2023-01-30T20:36:57.233Z,-0.83
2023-01-30T20:39:26.018Z,-0.80
2023-01-30T20:41:59.347Z,-0.87
2023-01-30T20:44:27.693Z,-0.91
2023-01-30T20:46:56.985Z,-0.97
2023-01-30T20:49:25.793Z,-1.01
2023-01-30T20:51:54.569Z,-1.04
2023-01-30T20:54:23.671Z,-1.08
2023-01-30T20:56:53.120Z,-1.07
2023-01-30T20:59:27.407Z,-1.15
2023-01-30T21:01:55.967Z,-1.12
2023-01-30T21:04:24.784Z,-1.02
2023-01-30T21:06:53.335Z,-1.01
2023-01-30T21:09:24.301Z,-1.00
2023-01-30T21:11:53.588Z,-1.03
2023-01-30T21:14:22.626Z,-1.03
2023-01-30T21:16:51.359Z,-1.06
2023-01-30T21:19:20.251Z,-1.08
2023-01-30T21:21:58.869Z,-1.08
2023-01-30T21:24:28.601Z,-1.13
2023-01-30T21:26:57.277Z,-1.17
2023-01-30T21:29:26.475Z,-1.15
2023-01-30T21:32:00.325Z,-1.07
2023-01-30T21:34:29.160Z,-1.06
2023-01-30T21:37:20.680Z,-1.22
2023-01-30T21:40:12.647Z,-1.27
2023-01-30T21:42:59.701Z,-1.32
2023-01-30T21:45:33.535Z,-1.38
2023-01-30T21:48:02.533Z,-1.37
2023-01-30T21:50:31.212Z,-1.40
2023-01-30T21:53:00.307Z,-1.35
2023-01-30T21:55:29.059Z,-1.24
2023-01-30T21:57:59.525Z,-1.14
2023-01-30T22:00:28.214Z,-1.10
2023-01-30T22:02:56.686Z,-1.18
2023-01-30T22:05:25.073Z,-1.20
2023-01-30T22:07:54.318Z,-1.17
2023-01-30T22:10:22.669Z,-1.20
2023-01-30T22:12:51.125Z,-1.27
2023-01-30T22:15:29.848Z,-1.31
2023-01-30T22:17:58.480Z,-1.33
2023-01-30T22:20:27.113Z,-1.32
2023-01-30T22:22:57.639Z,-1.28
2023-01-30T22:25:26.127Z,-1.24
2023-01-30T22:27:55.320Z,-1.21
2023-01-30T22:30:23.635Z,-1.23
2023-01-30T22:32:54.961Z,-1.23
2023-01-30T22:35:23.222Z,-1.30
2023-01-30T22:37:51.938Z,-1.38
2023-01-30T22:40:20.698Z,-1.49
2023-01-30T22:42:50.815Z,-1.55
2023-01-30T22:45:19.611Z,-1.54
2023-01-30T22:47:48.288Z,-1.48
2023-01-30T22:50:17.517Z,-1.47
2023-01-30T22:52:45.980Z,-1.43
2023-01-30T22:55:14.458Z,-1.31
